Port Jefferson Station, New York
Current Conditions -  °F | °C
As of 11:56 AM on Friday 24 Oct 2014 (Local Time) from KISP Reporting Station
Overcast Overcast  
Wind Chill: 54°   Ceiling: 2400
Heat Index: 54°   Visibility: 10mi
Dew Point: 47°   Wind: 14mph
Humidity: 77%   Direction: 320°NW
Pressure: 29.76"   Gusts: 24mph
Location:  40.93°N, 73.05°W
Report Text: KISP 241556Z 32012G21KT 10SM FEW015 BKN024 OVC080 12/08 A2976 RMK AO2 RAE19 SLP078 P0000 T01220083
Loading
Personal Weather Stations






























Interactive Weather Map
Tropical Storm Tracking
New forecast layout! Learn more

10-Day Weather Forecast

Advertisements
Track Severe Weather on mobile